createdAt,value
2022-07-30T00:01:00.134Z,100700.13
2022-07-30T00:03:31.814Z,100691.64
2022-07-30T00:06:03.360Z,100692.96
2022-07-30T00:08:34.441Z,100697.27
2022-07-30T00:11:05.983Z,100682.98
2022-07-30T00:13:37.531Z,100665.80
2022-07-30T00:16:09.055Z,100672.38
2022-07-30T00:18:40.351Z,100668.23
2022-07-30T00:21:20.153Z,100665.47
2022-07-30T00:24:01.250Z,100672.84
2022-07-30T00:26:19.415Z,100667.34
2022-07-30T00:28:50.902Z,100673.39
2022-07-30T00:31:22.542Z,100660.55
2022-07-30T00:33:54.111Z,100661.41
2022-07-30T00:36:25.832Z,100652.43
2022-07-30T00:38:57.381Z,100657.31
2022-07-30T00:41:28.680Z,100664.47
2022-07-30T00:44:00.275Z,100659.59
2022-07-30T00:46:31.760Z,100663.72
2022-07-30T00:49:03.190Z,100658.95
2022-07-30T00:51:34.533Z,100650.31
2022-07-30T00:54:06.113Z,100651.27
2022-07-30T00:56:39.142Z,100651.41
2022-07-30T00:59:12.023Z,100647.71
2022-07-30T01:01:43.732Z,100645.76
2022-07-30T01:04:15.201Z,100641.34
2022-07-30T01:06:46.849Z,100639.52
2022-07-30T01:09:17.987Z,100644.58
2022-07-30T01:11:49.484Z,100636.92
2022-07-30T01:14:20.880Z,100644.06
2022-07-30T01:16:52.706Z,100632.39
2022-07-30T01:19:50.424Z,100638.11
2022-07-30T01:22:57.662Z,100640.94
2022-07-30T01:25:49.498Z,100635.95
2022-07-30T01:28:23.528Z,100641.05
2022-07-30T01:30:56.352Z,100628.81
2022-07-30T01:33:29.371Z,100625.47
2022-07-30T01:36:03.083Z,100632.58
2022-07-30T01:38:35.438Z,100632.80
2022-07-30T01:41:09.089Z,100636.71
2022-07-30T01:43:41.588Z,100624.80
2022-07-30T01:46:13.891Z,100617.31
2022-07-30T01:48:46.930Z,100621.88
2022-07-30T01:51:20.754Z,100620.13
2022-07-30T01:53:53.938Z,100607.55
2022-07-30T01:56:27.775Z,100599.45
2022-07-30T01:59:02.264Z,100599.33
2022-07-30T02:01:33.634Z,100601.95
2022-07-30T02:04:06.061Z,100600.02
2022-07-30T02:06:46.111Z,100602.73
2022-07-30T02:09:19.708Z,100590.14
2022-07-30T02:12:11.552Z,100581.73
2022-07-30T02:14:51.609Z,100571.92
2022-07-30T02:17:30.436Z,100578.88
2022-07-30T02:20:03.799Z,100575.27
2022-07-30T02:22:38.608Z,100578.33
2022-07-30T02:25:11.802Z,100582.09
2022-07-30T02:27:45.021Z,100581.48
2022-07-30T02:30:16.668Z,100580.03
2022-07-30T02:32:50.597Z,100599.70
2022-07-30T02:35:24.731Z,100595.47
2022-07-30T02:37:58.515Z,100596.25
2022-07-30T02:40:30.119Z,100593.44
2022-07-30T02:43:02.146Z,100591.52
2022-07-30T02:45:33.640Z,100603.09
2022-07-30T02:48:07.701Z,100601.88
2022-07-30T02:50:40.800Z,100596.17
2022-07-30T02:53:14.598Z,100590.20
2022-07-30T02:55:47.113Z,100576.69
2022-07-30T02:58:20.879Z,100576.11
2022-07-30T03:00:54.423Z,100568.68
2022-07-30T03:03:28.838Z,100571.59
2022-07-30T03:06:01.019Z,100573.98
2022-07-30T03:08:34.877Z,100574.44
2022-07-30T03:11:07.061Z,100571.41
2022-07-30T03:13:38.864Z,100559.50
2022-07-30T03:16:12.054Z,100559.83
2022-07-30T03:18:45.699Z,100562.20
2022-07-30T03:21:19.626Z,100558.51
2022-07-30T03:23:53.163Z,100561.84
2022-07-30T03:26:26.285Z,100562.16
2022-07-30T03:28:58.103Z,100576.64
2022-07-30T03:31:36.182Z,100581.62
2022-07-30T03:34:06.351Z,100580.99
2022-07-30T03:36:40.482Z,100570.53
2022-07-30T03:39:14.091Z,100560.85
2022-07-30T03:41:45.976Z,100559.47
2022-07-30T03:44:18.080Z,100552.34
2022-07-30T03:46:51.337Z,100549.07
2022-07-30T03:49:24.458Z,100545.68
2022-07-30T03:51:57.086Z,100543.39
2022-07-30T03:54:28.554Z,100544.63
2022-07-30T03:57:01.405Z,100545.16
2022-07-30T03:59:34.506Z,100536.49
2022-07-30T04:02:07.329Z,100531.52
2022-07-30T04:04:40.190Z,100527.88
2022-07-30T04:07:11.623Z,100534.45
2022-07-30T04:09:42.986Z,100530.45
2022-07-30T04:12:14.538Z,100523.08
2022-07-30T04:14:47.513Z,100523.19
2022-07-30T04:17:21.678Z,100515.05
2022-07-30T04:20:00.192Z,100514.38
2022-07-30T04:22:34.523Z,100521.34
2022-07-30T04:25:10.454Z,100522.86
2022-07-30T04:28:03.097Z,100525.20
2022-07-30T04:30:18.900Z,100518.91
2022-07-30T04:32:51.034Z,100521.70
2022-07-30T04:35:50.629Z,100522.83
2022-07-30T04:38:04.734Z,100520.83
2022-07-30T04:40:36.815Z,100523.39
2022-07-30T04:43:08.493Z,100514.13
2022-07-30T04:45:42.061Z,100519.38
2022-07-30T04:48:13.341Z,100513.70
2022-07-30T04:50:47.632Z,100513.77
2022-07-30T04:53:20.598Z,100515.48
2022-07-30T04:55:52.995Z,100516.39
2022-07-30T04:58:25.532Z,100522.52
2022-07-30T05:00:59.295Z,100517.41
2022-07-30T05:03:32.818Z,100528.84
2022-07-30T05:06:06.564Z,100524.07
2022-07-30T05:08:39.250Z,100518.56
2022-07-30T05:11:14.470Z,100515.81
2022-07-30T05:13:50.531Z,100508.94
2022-07-30T05:16:23.250Z,100503.77
2022-07-30T05:18:54.833Z,100508.21
2022-07-30T05:21:28.710Z,100506.42
2022-07-30T05:24:00.493Z,100517.81
2022-07-30T05:26:31.860Z,100504.02
2022-07-30T05:29:06.922Z,100517.17
2022-07-30T05:31:38.088Z,100513.39
2022-07-30T05:34:09.909Z,100525.66
2022-07-30T05:36:41.132Z,100532.97
2022-07-30T05:39:12.526Z,100524.89
2022-07-30T05:41:43.941Z,100535.30
2022-07-30T05:44:15.127Z,100531.69
2022-07-30T05:46:47.922Z,100528.98
2022-07-30T05:49:19.497Z,100533.52
2022-07-30T05:51:51.086Z,100530.92
2022-07-30T05:54:24.644Z,100539.83
2022-07-30T05:56:56.258Z,100533.66
2022-07-30T05:59:27.798Z,100537.08
2022-07-30T06:02:02.254Z,100529.60
2022-07-30T06:04:33.333Z,100526.13
2022-07-30T06:07:04.881Z,100530.59
2022-07-30T06:09:36.826Z,100527.03
2022-07-30T06:12:08.933Z,100531.34
2022-07-30T06:14:40.296Z,100521.09
2022-07-30T06:17:11.824Z,100531.83
2022-07-30T06:19:43.231Z,100536.50
2022-07-30T06:22:14.792Z,100541.58
2022-07-30T06:24:46.164Z,100531.58
2022-07-30T06:27:17.473Z,100531.34
2022-07-30T06:29:48.853Z,100533.41
2022-07-30T06:32:20.182Z,100534.17
2022-07-30T06:34:59.620Z,100531.66
2022-07-30T06:37:59.376Z,100537.98
2022-07-30T06:39:58.845Z,100540.23
2022-07-30T06:42:30.190Z,100535.34
2022-07-30T06:45:01.556Z,100537.64
2022-07-30T06:47:34.315Z,100539.92
2022-07-30T06:50:06.408Z,100526.84
2022-07-30T06:52:37.800Z,100488.48
2022-07-30T06:55:09.738Z,100521.23
2022-07-30T06:57:42.327Z,100523.50
2022-07-30T07:00:14.927Z,100518.77
2022-07-30T07:02:46.360Z,100520.72
2022-07-30T07:05:19.720Z,100515.83
2022-07-30T07:07:58.714Z,100521.86
2022-07-30T07:10:24.102Z,100514.27
2022-07-30T07:12:55.617Z,100513.23
2022-07-30T07:15:36.781Z,100513.03
2022-07-30T07:18:02.896Z,100515.11
2022-07-30T07:20:35.952Z,100517.88
2022-07-30T07:23:09.141Z,100514.12
2022-07-30T07:25:40.831Z,100518.86
2022-07-30T07:28:13.655Z,100514.25
2022-07-30T07:30:45.624Z,100509.17
2022-07-30T07:33:17.169Z,100515.73
2022-07-30T07:35:50.370Z,100511.30
2022-07-30T07:38:22.717Z,100515.10
2022-07-30T07:40:54.713Z,100504.81
2022-07-30T07:43:25.853Z,100508.55
2022-07-30T07:45:57.510Z,100505.45
2022-07-30T07:48:29.072Z,100489.08
2022-07-30T07:51:01.309Z,100493.94
2022-07-30T07:53:33.038Z,100492.39
2022-07-30T07:56:04.938Z,100489.98
2022-07-30T07:58:36.492Z,100484.09
2022-07-30T08:01:09.950Z,100484.81
2022-07-30T08:03:41.554Z,100477.42
2022-07-30T08:06:15.222Z,100478.52
2022-07-30T08:08:46.534Z,100479.39
2022-07-30T08:11:18.140Z,100478.52
2022-07-30T08:13:52.888Z,100479.39
2022-07-30T08:16:23.216Z,100483.00
2022-07-30T08:18:57.331Z,100474.67
2022-07-30T08:21:30.635Z,100473.79
2022-07-30T08:24:01.986Z,100479.86
2022-07-30T08:26:35.049Z,100466.52
2022-07-30T08:29:08.032Z,100467.23
2022-07-30T08:31:39.386Z,100467.42
2022-07-30T08:34:11.094Z,100469.25
2022-07-30T08:36:42.469Z,100468.70
2022-07-30T08:39:14.394Z,100470.13
2022-07-30T08:41:48.608Z,100464.25
2022-07-30T08:44:22.345Z,100464.09
2022-07-30T08:46:56.775Z,100469.50
2022-07-30T08:49:30.776Z,100469.22
2022-07-30T08:52:04.444Z,100462.36
2022-07-30T08:54:36.766Z,100465.05
2022-07-30T08:57:11.333Z,100465.21
2022-07-30T09:00:00.632Z,100462.70
2022-07-30T09:02:27.437Z,100473.65
2022-07-30T09:04:51.537Z,100466.66
2022-07-30T09:07:23.633Z,100469.97
2022-07-30T09:09:55.099Z,100473.27
2022-07-30T09:12:38.102Z,100475.84
2022-07-30T09:15:12.653Z,100475.72
2022-07-30T09:18:02.462Z,100471.95
2022-07-30T09:20:36.095Z,100465.97
2022-07-30T09:23:08.267Z,100469.84
2022-07-30T09:25:45.845Z,100463.94
2022-07-30T09:28:18.346Z,100473.97
2022-07-30T09:30:54.734Z,100478.14
2022-07-30T09:33:41.680Z,100477.57
2022-07-30T09:36:16.176Z,100478.14
2022-07-30T09:38:56.064Z,100479.57
2022-07-30T09:41:39.819Z,100481.47
2022-07-30T09:44:13.415Z,100473.84
2022-07-30T09:46:51.026Z,100479.44
2022-07-30T09:49:24.757Z,100478.44
2022-07-30T09:51:57.659Z,100476.40
2022-07-30T09:54:51.760Z,100481.09
2022-07-30T09:57:27.806Z,100469.68
2022-07-30T09:59:56.922Z,100472.08
2022-07-30T10:02:33.610Z,100468.97
2022-07-30T10:05:16.493Z,100468.83
2022-07-30T10:07:56.132Z,100471.55
2022-07-30T10:10:31.309Z,100478.14
2022-07-30T10:13:05.082Z,100461.22
2022-07-30T10:15:38.175Z,100463.52
2022-07-30T10:18:10.805Z,100467.97
2022-07-30T10:20:46.226Z,100463.38
2022-07-30T10:23:22.654Z,100467.19
2022-07-30T10:25:55.620Z,100474.40
2022-07-30T10:28:28.267Z,100470.24
2022-07-30T10:31:01.213Z,100471.37
2022-07-30T10:33:37.553Z,100481.64
2022-07-30T10:36:09.053Z,100478.41
2022-07-30T10:38:44.216Z,100477.66
2022-07-30T10:41:44.036Z,100493.45
2022-07-30T10:44:33.162Z,100488.30
2022-07-30T10:47:11.509Z,100485.46
2022-07-30T10:49:43.640Z,100486.46
2022-07-30T10:52:16.110Z,100484.36
2022-07-30T10:54:48.157Z,100493.22
2022-07-30T10:57:32.251Z,100493.22
2022-07-30T11:00:05.103Z,100495.33
2022-07-30T11:02:37.300Z,100484.80
2022-07-30T11:05:27.176Z,100480.70
2022-07-30T11:07:58.693Z,100488.56
2022-07-30T11:10:39.064Z,100485.11
2022-07-30T11:13:12.499Z,100483.49
2022-07-30T11:15:59.166Z,100481.81
2022-07-30T11:18:33.040Z,100476.27
2022-07-30T11:21:24.197Z,100480.08
2022-07-30T11:23:56.756Z,100483.49
2022-07-30T11:27:04.765Z,100481.41
2022-07-30T11:29:50.965Z,100472.53
2022-07-30T11:32:29.649Z,100477.42
2022-07-30T11:35:23.066Z,100480.13
2022-07-30T11:38:09.858Z,100485.03
2022-07-30T11:40:49.252Z,100482.09
2022-07-30T11:43:36.095Z,100478.59
2022-07-30T11:46:28.781Z,100483.17
2022-07-30T11:49:03.806Z,100480.13
2022-07-30T11:51:49.948Z,100477.98
2022-07-30T11:54:26.504Z,100475.34
2022-07-30T11:57:04.011Z,100486.73
2022-07-30T11:59:32.354Z,100492.25
2022-07-30T12:02:04.312Z,100494.02
2022-07-30T12:04:37.821Z,100492.66
2022-07-30T12:07:10.013Z,100485.30
2022-07-30T12:09:44.051Z,100475.35
2022-07-30T12:12:28.178Z,100471.97
2022-07-30T12:15:02.019Z,100471.97
2022-07-30T12:17:47.620Z,100472.45
2022-07-30T12:20:21.471Z,100474.56
2022-07-30T12:22:52.978Z,100467.77
2022-07-30T12:25:25.342Z,100463.38
2022-07-30T12:27:59.493Z,100463.17
2022-07-30T12:30:36.665Z,100463.17
2022-07-30T12:33:11.289Z,100462.87
2022-07-30T12:35:56.965Z,100464.52
2022-07-30T12:38:30.113Z,100470.99
2022-07-30T12:41:04.673Z,100463.10
2022-07-30T12:43:46.755Z,100460.11
2022-07-30T12:46:27.180Z,100466.97
2022-07-30T12:49:21.605Z,100460.19
2022-07-30T12:51:41.410Z,100452.62
2022-07-30T12:54:22.942Z,100451.15
2022-07-30T12:57:02.353Z,100440.13
2022-07-30T12:59:35.882Z,100439.61
2022-07-30T13:02:11.332Z,100433.27
2022-07-30T13:05:10.884Z,100439.55
2022-07-30T13:07:31.920Z,100436.55
2022-07-30T13:10:16.909Z,100433.11
2022-07-30T13:12:48.178Z,100431.66
2022-07-30T13:15:25.434Z,100427.39
2022-07-30T13:17:58.231Z,100424.20
2022-07-30T13:20:29.825Z,100431.55
2022-07-30T13:23:05.488Z,100423.14
2022-07-30T13:25:38.742Z,100430.86
2022-07-30T13:28:12.033Z,100423.24
2022-07-30T13:30:49.237Z,100433.13
2022-07-30T13:33:25.666Z,100432.11
2022-07-30T13:36:02.455Z,100436.25
2022-07-30T13:38:52.179Z,100441.62
2022-07-30T13:41:33.182Z,100434.45
2022-07-30T13:44:09.593Z,100446.70
2022-07-30T13:46:46.076Z,100447.69
2022-07-30T13:49:19.245Z,100455.94
2022-07-30T13:51:51.906Z,100453.48
2022-07-30T13:54:23.432Z,100455.38
2022-07-30T13:56:54.832Z,100447.62
2022-07-30T13:59:26.267Z,100457.08
2022-07-30T14:01:58.410Z,100463.13
2022-07-30T14:04:30.439Z,100464.56
2022-07-30T14:07:02.412Z,100465.13
2022-07-30T14:09:34.249Z,100466.81
2022-07-30T14:12:07.736Z,100470.06
2022-07-30T14:14:39.525Z,100473.04
2022-07-30T14:17:12.110Z,100478.95
2022-07-30T14:19:44.030Z,100474.66
2022-07-30T14:22:16.952Z,100470.61
2022-07-30T14:24:49.082Z,100486.48
2022-07-30T14:27:21.109Z,100483.77
2022-07-30T14:29:53.033Z,100490.28
2022-07-30T14:32:24.895Z,100484.10
2022-07-30T14:34:56.811Z,100488.78
2022-07-30T14:37:29.135Z,100489.41
2022-07-30T14:40:00.916Z,100478.92
2022-07-30T14:42:32.802Z,100481.69
2022-07-30T14:45:06.560Z,100464.91
2022-07-30T14:47:39.753Z,100468.73
2022-07-30T14:50:11.488Z,100472.20
2022-07-30T14:52:44.315Z,100467.02
2022-07-30T14:55:16.349Z,100469.60
2022-07-30T14:57:48.103Z,100482.89
2022-07-30T15:00:19.875Z,100488.16
2022-07-30T15:02:53.173Z,100494.44
2022-07-30T15:05:25.067Z,100498.10
2022-07-30T15:07:56.554Z,100491.84
2022-07-30T15:10:28.255Z,100491.72
2022-07-30T15:12:59.844Z,100486.16
2022-07-30T15:15:33.988Z,100489.98
2022-07-30T15:18:05.483Z,100495.91
2022-07-30T15:20:37.237Z,100499.30
2022-07-30T15:23:13.298Z,100491.22
2022-07-30T15:25:44.133Z,100493.66
2022-07-30T15:28:16.024Z,100489.48
2022-07-30T15:30:47.947Z,100485.03
2022-07-30T15:33:19.964Z,100498.04
2022-07-30T15:35:51.676Z,100495.14
2022-07-30T15:38:23.913Z,100492.64
2022-07-30T15:40:57.101Z,100498.69
2022-07-30T15:43:29.195Z,100499.52
2022-07-30T15:46:00.951Z,100488.86
2022-07-30T15:48:33.010Z,100485.26
2022-07-30T15:51:06.051Z,100493.53
2022-07-30T15:53:37.941Z,100501.60
2022-07-30T15:56:09.719Z,100504.02
2022-07-30T15:58:43.670Z,100489.35
2022-07-30T16:01:16.691Z,100495.98
2022-07-30T16:03:48.136Z,100500.06
2022-07-30T16:06:19.793Z,100496.73
2022-07-30T16:08:52.530Z,100492.20
2022-07-30T16:11:23.976Z,100488.36
2022-07-30T16:13:55.505Z,100489.25
2022-07-30T16:16:29.361Z,100493.91
2022-07-30T16:19:02.253Z,100489.77
2022-07-30T16:21:33.857Z,100486.79
2022-07-30T16:24:05.973Z,100502.14
2022-07-30T16:26:37.838Z,100495.25
2022-07-30T16:29:13.636Z,100497.22
2022-07-30T16:31:44.345Z,100496.41
2022-07-30T16:34:16.053Z,100501.19
2022-07-30T16:36:47.712Z,100494.92
2022-07-30T16:39:21.000Z,100499.00
2022-07-30T16:41:52.910Z,100500.03
2022-07-30T16:44:24.411Z,100496.18
2022-07-30T16:46:57.242Z,100497.78
2022-07-30T16:49:29.478Z,100498.37
2022-07-30T16:52:04.060Z,100507.30
2022-07-30T16:54:40.491Z,100501.37
2022-07-30T16:57:12.939Z,100501.19
2022-07-30T16:59:45.744Z,100507.45
2022-07-30T17:02:20.768Z,100501.48
2022-07-30T17:04:56.976Z,100508.08
2022-07-30T17:07:30.051Z,100506.41
2022-07-30T17:10:01.632Z,100510.11
2022-07-30T17:12:33.343Z,100504.48
2022-07-30T17:15:05.355Z,100502.52
2022-07-30T17:17:39.006Z,100510.77
2022-07-30T17:20:16.288Z,100509.08
2022-07-30T17:22:49.939Z,100503.92
2022-07-30T17:25:22.735Z,100507.13
2022-07-30T17:27:56.434Z,100501.72
2022-07-30T17:30:31.060Z,100510.47
2022-07-30T17:33:02.826Z,100508.67
2022-07-30T17:35:45.482Z,100497.99
2022-07-30T17:38:18.885Z,100511.02
2022-07-30T17:40:50.792Z,100497.16
2022-07-30T17:43:28.039Z,100502.98
2022-07-30T17:46:21.048Z,100502.27
2022-07-30T17:48:57.833Z,100513.66
2022-07-30T17:51:37.869Z,100506.66
2022-07-30T17:54:12.672Z,100505.63
2022-07-30T17:56:44.700Z,100481.69
2022-07-30T17:59:22.275Z,100476.49
2022-07-30T18:01:54.437Z,100497.11
2022-07-30T18:04:26.191Z,100497.73
2022-07-30T18:06:57.872Z,100499.02
2022-07-30T18:09:38.943Z,100493.34
2022-07-30T18:12:08.103Z,100501.03
2022-07-30T18:14:40.725Z,100507.92
2022-07-30T18:17:15.060Z,100505.23
2022-07-30T18:19:49.525Z,100514.97
2022-07-30T18:22:29.802Z,100510.48
2022-07-30T18:25:00.701Z,100513.48
2022-07-30T18:27:33.203Z,100509.94
2022-07-30T18:30:07.735Z,100512.70
2022-07-30T18:32:40.855Z,100489.65
2022-07-30T18:35:14.865Z,100489.65
2022-07-30T18:37:46.169Z,100515.88
2022-07-30T18:40:24.295Z,100513.28
2022-07-30T18:42:56.266Z,100523.15
2022-07-30T18:45:35.257Z,100520.27
2022-07-30T18:48:04.703Z,100513.66
2022-07-30T18:50:36.895Z,100514.51
2022-07-30T18:53:15.513Z,100519.27
2022-07-30T18:55:44.746Z,100518.56
2022-07-30T18:58:21.548Z,100536.20
2022-07-30T19:00:54.213Z,100528.52
2022-07-30T19:03:27.327Z,100534.03
2022-07-30T19:06:01.925Z,100534.24
2022-07-30T19:08:35.705Z,100533.81
2022-07-30T19:11:07.633Z,100530.91
2022-07-30T19:13:40.346Z,100539.75
2022-07-30T19:16:12.404Z,100533.38
2022-07-30T19:18:44.595Z,100537.29
2022-07-30T19:21:17.708Z,100542.48
2022-07-30T19:23:50.324Z,100543.65
2022-07-30T19:26:24.539Z,100549.05
2022-07-30T19:29:00.456Z,100547.43
2022-07-30T19:31:32.256Z,100545.69
2022-07-30T19:34:04.080Z,100555.45
2022-07-30T19:36:36.285Z,100553.69
2022-07-30T19:39:13.297Z,100552.30
2022-07-30T19:41:57.573Z,100548.53
2022-07-30T19:44:30.059Z,100550.78
2022-07-30T19:47:04.672Z,100557.81
2022-07-30T19:49:42.288Z,100556.83
2022-07-30T19:54:57.375Z,100559.53
2022-07-30T19:57:53.014Z,100553.71
2022-07-30T20:00:14.597Z,100554.36
2022-07-30T20:02:54.583Z,100560.62
2022-07-30T20:05:30.512Z,100561.38
2022-07-30T20:08:05.554Z,100556.45
2022-07-30T20:10:39.286Z,100561.81
2022-07-30T20:13:13.468Z,100560.61
2022-07-30T20:15:47.016Z,100566.02
2022-07-30T20:18:19.635Z,100563.77
2022-07-30T20:20:53.083Z,100564.83
2022-07-30T20:23:25.421Z,100563.53
2022-07-30T20:25:57.451Z,100568.63
2022-07-30T20:28:29.871Z,100565.92
2022-07-30T20:31:02.157Z,100576.38
2022-07-30T20:33:37.985Z,100576.08
2022-07-30T20:36:10.022Z,100562.57
2022-07-30T20:38:47.429Z,100574.88
2022-07-30T20:41:29.841Z,100563.97
2022-07-30T20:44:12.238Z,100572.52
2022-07-30T20:46:52.721Z,100572.17
2022-07-30T20:49:35.230Z,100572.28
2022-07-30T20:52:03.193Z,100570.39
2022-07-30T20:54:35.664Z,100575.05
2022-07-30T20:57:15.441Z,100572.08
2022-07-30T20:59:44.173Z,100568.28
2022-07-30T21:02:17.377Z,100569.03
2022-07-30T21:04:56.684Z,100573.00
2022-07-30T21:07:27.411Z,100573.00
2022-07-30T21:10:01.284Z,100567.73
2022-07-30T21:12:33.441Z,100570.44
2022-07-30T21:15:22.943Z,100560.52
2022-07-30T21:17:48.800Z,100567.16
2022-07-30T21:20:27.359Z,100571.97
2022-07-30T21:22:59.322Z,100563.22
2022-07-30T21:26:01.389Z,100570.78
2022-07-30T21:28:27.125Z,100564.93
2022-07-30T21:31:07.591Z,100565.16
2022-07-30T21:33:40.704Z,100557.10
2022-07-30T21:36:24.822Z,100567.25
2022-07-30T21:38:54.961Z,100560.10
2022-07-30T21:41:40.169Z,100570.09
2022-07-30T21:44:05.285Z,100570.05
2022-07-30T21:46:40.355Z,100568.73
2022-07-30T21:49:14.166Z,100566.70
2022-07-30T21:51:47.104Z,100571.63
2022-07-30T21:54:29.112Z,100562.50
2022-07-30T21:56:53.884Z,100562.09
2022-07-30T21:59:27.633Z,100562.39
2022-07-30T22:02:01.580Z,100558.20
2022-07-30T22:04:36.544Z,100563.05
2022-07-30T22:07:10.058Z,100561.44
2022-07-30T22:09:44.755Z,100551.70
2022-07-30T22:12:17.933Z,100554.95
2022-07-30T22:14:52.090Z,100552.55
2022-07-30T22:17:36.627Z,100561.75
2022-07-30T22:19:57.546Z,100554.99
2022-07-30T22:22:39.800Z,100557.29
2022-07-30T22:25:13.303Z,100554.89
2022-07-30T22:27:55.924Z,100553.95
2022-07-30T22:30:28.780Z,100547.29
2022-07-30T22:33:21.496Z,100548.25
2022-07-30T22:35:53.345Z,100545.75
2022-07-30T22:38:27.661Z,100543.05
2022-07-30T22:40:59.266Z,100542.95
2022-07-30T22:43:35.545Z,100537.55
2022-07-30T22:46:04.926Z,100547.59
2022-07-30T22:48:38.360Z,100542.39
2022-07-30T22:51:11.975Z,100540.70
2022-07-30T22:54:11.126Z,100529.89
2022-07-30T22:56:18.112Z,100532.91
2022-07-30T22:58:50.184Z,100527.61
2022-07-30T23:01:22.998Z,100524.25
2022-07-30T23:03:54.809Z,100518.55
2022-07-30T23:06:26.863Z,100512.97
2022-07-30T23:08:59.152Z,100514.55
2022-07-30T23:11:37.415Z,100518.45
2022-07-30T23:12:17.269Z,100546.25
2022-07-30T23:14:09.219Z,100518.00
2022-07-30T23:16:43.289Z,100517.00
2022-07-30T23:19:21.937Z,100511.20
2022-07-30T23:21:52.211Z,100506.11
2022-07-30T23:24:24.113Z,100509.05
2022-07-30T23:26:55.968Z,100511.64
2022-07-30T23:29:27.216Z,100506.55
2022-07-30T23:31:58.977Z,100509.90
2022-07-30T23:34:32.429Z,100514.34
2022-07-30T23:37:14.347Z,100502.66
2022-07-30T23:39:42.438Z,100504.30
2022-07-30T23:42:14.188Z,100498.80
2022-07-30T23:44:45.994Z,100499.00
2022-07-30T23:47:17.850Z,100501.80
2022-07-30T23:49:49.503Z,100499.00
2022-07-30T23:52:21.360Z,100507.84
2022-07-30T23:54:53.187Z,100503.64
2022-07-30T23:57:25.098Z,100499.44
2022-07-30T23:59:57.928Z,100493.29
